sensor_id;sensor_type;location;lat;lon;timestamp;P1;durP1;ratioP1;P2;durP2;ratioP2
52025;SDS011;38041;40.058;18.328;2023-02-28T00:00:38;81.27;;;11.03;;
52025;SDS011;38041;40.058;18.328;2023-02-28T00:03:06;82.33;;;10.57;;
52025;SDS011;38041;40.058;18.328;2023-02-28T00:05:33;82.10;;;11.50;;
52025;SDS011;38041;40.058;18.328;2023-02-28T00:08:01;84.93;;;12.43;;
52025;SDS011;38041;40.058;18.328;2023-02-28T00:10:30;83.83;;;10.27;;
52025;SDS011;38041;40.058;18.328;2023-02-28T00:13:02;85.93;;;12.50;;
52025;SDS011;38041;40.058;18.328;2023-02-28T00:15:30;91.10;;;14.50;;
52025;SDS011;38041;40.058;18.328;2023-02-28T00:17:57;97.37;;;11.17;;
52025;SDS011;38041;40.058;18.328;2023-02-28T00:20:25;75.60;;;10.40;;
52025;SDS011;38041;40.058;18.328;2023-02-28T00:22:54;93.00;;;13.07;;
52025;SDS011;38041;40.058;18.328;2023-02-28T00:25:23;79.63;;;12.73;;
52025;SDS011;38041;40.058;18.328;2023-02-28T00:27:51;91.83;;;14.67;;
52025;SDS011;38041;40.058;18.328;2023-02-28T00:30:20;103.37;;;13.47;;
52025;SDS011;38041;40.058;18.328;2023-02-28T00:32:49;105.47;;;13.60;;
52025;SDS011;38041;40.058;18.328;2023-02-28T00:35:17;97.53;;;12.13;;
52025;SDS011;38041;40.058;18.328;2023-02-28T00:37:44;102.47;;;15.00;;
52025;SDS011;38041;40.058;18.328;2023-02-28T00:40:12;88.17;;;13.03;;
52025;SDS011;38041;40.058;18.328;2023-02-28T00:42:40;88.30;;;10.93;;
52025;SDS011;38041;40.058;18.328;2023-02-28T00:48:03;82.75;;;14.45;;
52025;SDS011;38041;40.058;18.328;2023-02-28T00:50:31;106.97;;;13.63;;
52025;SDS011;38041;40.058;18.328;2023-02-28T00:52:59;89.47;;;12.13;;
52025;SDS011;38041;40.058;18.328;2023-02-28T00:55:26;97.07;;;13.13;;
52025;SDS011;38041;40.058;18.328;2023-02-28T00:57:54;97.77;;;11.87;;
52025;SDS011;38041;40.058;18.328;2023-02-28T01:00:21;94.50;;;12.43;;
52025;SDS011;38041;40.058;18.328;2023-02-28T01:02:49;109.07;;;15.93;;
52025;SDS011;38041;40.058;18.328;2023-02-28T01:05:17;87.47;;;12.90;;
52025;SDS011;38041;40.058;18.328;2023-02-28T01:07:45;92.47;;;12.30;;
52025;SDS011;38041;40.058;18.328;2023-02-28T01:10:13;109.50;;;15.33;;
52025;SDS011;38041;40.058;18.328;2023-02-28T01:12:40;89.63;;;12.57;;
52025;SDS011;38041;40.058;18.328;2023-02-28T01:15:09;73.53;;;12.23;;
52025;SDS011;38041;40.058;18.328;2023-02-28T01:17:37;90.73;;;10.67;;
52025;SDS011;38041;40.058;18.328;2023-02-28T01:20:05;87.80;;;12.33;;
52025;SDS011;38041;40.058;18.328;2023-02-28T01:22:34;81.93;;;11.43;;
52025;SDS011;38041;40.058;18.328;2023-02-28T01:25:01;102.53;;;11.63;;
52025;SDS011;38041;40.058;18.328;2023-02-28T01:27:30;76.97;;;11.37;;
52025;SDS011;38041;40.058;18.328;2023-02-28T01:29:58;95.97;;;14.43;;
52025;SDS011;38041;40.058;18.328;2023-02-28T01:32:26;84.07;;;11.87;;
52025;SDS011;38041;40.058;18.328;2023-02-28T01:34:53;87.03;;;11.30;;
52025;SDS011;38041;40.058;18.328;2023-02-28T01:37:22;97.77;;;12.30;;
52025;SDS011;38041;40.058;18.328;2023-02-28T01:39:50;74.33;;;12.77;;
52025;SDS011;38041;40.058;18.328;2023-02-28T01:42:19;98.43;;;12.87;;
52025;SDS011;38041;40.058;18.328;2023-02-28T01:47:21;79.53;;;10.60;;
52025;SDS011;38041;40.058;18.328;2023-02-28T01:49:49;84.30;;;12.47;;
52025;SDS011;38041;40.058;18.328;2023-02-28T01:52:18;92.57;;;13.87;;
52025;SDS011;38041;40.058;18.328;2023-02-28T01:54:49;93.27;;;12.73;;
52025;SDS011;38041;40.058;18.328;2023-02-28T01:57:19;98.70;;;10.83;;
52025;SDS011;38041;40.058;18.328;2023-02-28T01:59:59;103.43;;;10.67;;
52025;SDS011;38041;40.058;18.328;2023-02-28T02:02:38;96.50;;;13.17;;
52025;SDS011;38041;40.058;18.328;2023-02-28T02:05:09;97.37;;;12.07;;
52025;SDS011;38041;40.058;18.328;2023-02-28T02:07:38;96.33;;;10.27;;
52025;SDS011;38041;40.058;18.328;2023-02-28T02:15:32;82.67;;;12.07;;
52025;SDS011;38041;40.058;18.328;2023-02-28T02:18:04;81.73;;;9.33;;
52025;SDS011;38041;40.058;18.328;2023-02-28T02:21:01;65.67;;;12.00;;
52025;SDS011;38041;40.058;18.328;2023-02-28T02:23:39;77.90;;;12.63;;
52025;SDS011;38041;40.058;18.328;2023-02-28T02:29:00;75.53;;;11.57;;
52025;SDS011;38041;40.058;18.328;2023-02-28T02:36:34;79.13;;;12.97;;
52025;SDS011;38041;40.058;18.328;2023-02-28T02:41:58;104.20;;;14.43;;
52025;SDS011;38041;40.058;18.328;2023-02-28T02:44:31;81.43;;;11.10;;
52025;SDS011;38041;40.058;18.328;2023-02-28T02:47:03;96.70;;;15.50;;
52025;SDS011;38041;40.058;18.328;2023-02-28T02:49:33;84.23;;;11.80;;
52025;SDS011;38041;40.058;18.328;2023-02-28T02:52:06;88.87;;;14.03;;
52025;SDS011;38041;40.058;18.328;2023-02-28T02:54:37;91.10;;;13.77;;
52025;SDS011;38041;40.058;18.328;2023-02-28T02:57:13;74.97;;;10.10;;
52025;SDS011;38041;40.058;18.328;2023-02-28T02:59:43;115.17;;;15.00;;
52025;SDS011;38041;40.058;18.328;2023-02-28T03:02:12;102.33;;;13.83;;
52025;SDS011;38041;40.058;18.328;2023-02-28T03:04:42;95.87;;;14.00;;
52025;SDS011;38041;40.058;18.328;2023-02-28T03:07:10;80.83;;;13.33;;
52025;SDS011;38041;40.058;18.328;2023-02-28T03:09:38;89.37;;;11.73;;
52025;SDS011;38041;40.058;18.328;2023-02-28T03:12:07;96.57;;;12.20;;
52025;SDS011;38041;40.058;18.328;2023-02-28T03:17:20;112.77;;;14.47;;
52025;SDS011;38041;40.058;18.328;2023-02-28T03:19:53;96.33;;;14.03;;
52025;SDS011;38041;40.058;18.328;2023-02-28T03:25:42;116.40;;;16.33;;
52025;SDS011;38041;40.058;18.328;2023-02-28T03:30:18;108.23;;;14.73;;
52025;SDS011;38041;40.058;18.328;2023-02-28T03:35:21;119.30;;;15.67;;
52025;SDS011;38041;40.058;18.328;2023-02-28T03:37:52;97.53;;;14.70;;
52025;SDS011;38041;40.058;18.328;2023-02-28T03:40:21;91.23;;;14.47;;
52025;SDS011;38041;40.058;18.328;2023-02-28T03:42:50;113.60;;;13.23;;
52025;SDS011;38041;40.058;18.328;2023-02-28T03:45:20;104.43;;;12.40;;
52025;SDS011;38041;40.058;18.328;2023-02-28T03:47:51;100.00;;;12.83;;
52025;SDS011;38041;40.058;18.328;2023-02-28T03:50:24;95.57;;;14.07;;
52025;SDS011;38041;40.058;18.328;2023-02-28T03:53:11;104.93;;;12.93;;
52025;SDS011;38041;40.058;18.328;2023-02-28T03:55:56;108.47;;;14.77;;
52025;SDS011;38041;40.058;18.328;2023-02-28T03:58:34;110.65;;;13.43;;
52025;SDS011;38041;40.058;18.328;2023-02-28T04:01:04;92.43;;;12.53;;
52025;SDS011;38041;40.058;18.328;2023-02-28T04:03:35;86.23;;;14.50;;
52025;SDS011;38041;40.058;18.328;2023-02-28T04:06:04;89.53;;;15.53;;
52025;SDS011;38041;40.058;18.328;2023-02-28T04:08:32;100.13;;;11.57;;
52025;SDS011;38041;40.058;18.328;2023-02-28T04:11:35;101.77;;;13.30;;
52025;SDS011;38041;40.058;18.328;2023-02-28T04:13:54;93.27;;;13.63;;
52025;SDS011;38041;40.058;18.328;2023-02-28T04:16:22;103.00;;;13.50;;
52025;SDS011;38041;40.058;18.328;2023-02-28T04:19:00;94.80;;;11.43;;
52025;SDS011;38041;40.058;18.328;2023-02-28T04:21:32;103.83;;;14.30;;
52025;SDS011;38041;40.058;18.328;2023-02-28T04:24:00;82.00;;;12.27;;
52025;SDS011;38041;40.058;18.328;2023-02-28T04:26:29;122.17;;;15.83;;
52025;SDS011;38041;40.058;18.328;2023-02-28T04:28:58;92.60;;;12.63;;
52025;SDS011;38041;40.058;18.328;2023-02-28T04:31:25;88.37;;;12.90;;
52025;SDS011;38041;40.058;18.328;2023-02-28T04:33:54;99.13;;;11.83;;
52025;SDS011;38041;40.058;18.328;2023-02-28T04:36:21;82.90;;;9.87;;
52025;SDS011;38041;40.058;18.328;2023-02-28T04:38:49;95.83;;;14.93;;
52025;SDS011;38041;40.058;18.328;2023-02-28T04:41:17;91.07;;;12.03;;
52025;SDS011;38041;40.058;18.328;2023-02-28T04:43:45;81.07;;;12.50;;
52025;SDS011;38041;40.058;18.328;2023-02-28T04:46:12;92.57;;;10.90;;
52025;SDS011;38041;40.058;18.328;2023-02-28T04:48:40;89.53;;;11.93;;
52025;SDS011;38041;40.058;18.328;2023-02-28T04:51:09;95.57;;;11.33;;
52025;SDS011;38041;40.058;18.328;2023-02-28T04:53:37;85.37;;;11.77;;
52025;SDS011;38041;40.058;18.328;2023-02-28T04:56:06;91.83;;;12.80;;
52025;SDS011;38041;40.058;18.328;2023-02-28T04:58:34;91.00;;;12.53;;
52025;SDS011;38041;40.058;18.328;2023-02-28T05:01:23;100.40;;;11.83;;
52025;SDS011;38041;40.058;18.328;2023-02-28T05:03:50;92.40;;;12.73;;
52025;SDS011;38041;40.058;18.328;2023-02-28T05:06:18;91.27;;;14.03;;
52025;SDS011;38041;40.058;18.328;2023-02-28T05:08:46;94.57;;;13.03;;
52025;SDS011;38041;40.058;18.328;2023-02-28T05:11:21;71.90;;;10.23;;
52025;SDS011;38041;40.058;18.328;2023-02-28T05:13:50;79.82;;;11.02;;
52025;SDS011;38041;40.058;18.328;2023-02-28T05:16:18;111.87;;;13.60;;
52025;SDS011;38041;40.058;18.328;2023-02-28T05:18:46;91.07;;;10.73;;
52025;SDS011;38041;40.058;18.328;2023-02-28T05:21:22;97.37;;;13.57;;
52025;SDS011;38041;40.058;18.328;2023-02-28T05:23:51;90.73;;;10.47;;
52025;SDS011;38041;40.058;18.328;2023-02-28T05:26:19;78.70;;;11.13;;
52025;SDS011;38041;40.058;18.328;2023-02-28T05:28:46;93.87;;;12.20;;
52025;SDS011;38041;40.058;18.328;2023-02-28T05:31:14;73.93;;;11.93;;
52025;SDS011;38041;40.058;18.328;2023-02-28T05:33:42;89.27;;;16.00;;
52025;SDS011;38041;40.058;18.328;2023-02-28T05:36:10;88.43;;;11.20;;
52025;SDS011;38041;40.058;18.328;2023-02-28T05:38:37;75.27;;;11.63;;
52025;SDS011;38041;40.058;18.328;2023-02-28T05:41:06;90.87;;;12.40;;
52025;SDS011;38041;40.058;18.328;2023-02-28T05:43:34;94.80;;;13.33;;
52025;SDS011;38041;40.058;18.328;2023-02-28T05:46:05;88.70;;;13.07;;
52025;SDS011;38041;40.058;18.328;2023-02-28T05:48:34;93.67;;;13.03;;
52025;SDS011;38041;40.058;18.328;2023-02-28T05:51:02;85.30;;;13.30;;
52025;SDS011;38041;40.058;18.328;2023-02-28T05:53:30;77.70;;;10.80;;
52025;SDS011;38041;40.058;18.328;2023-02-28T05:55:58;78.53;;;11.03;;
52025;SDS011;38041;40.058;18.328;2023-02-28T05:58:26;91.77;;;10.97;;
52025;SDS011;38041;40.058;18.328;2023-02-28T06:01:00;85.27;;;12.57;;
52025;SDS011;38041;40.058;18.328;2023-02-28T06:03:28;87.77;;;11.13;;
52025;SDS011;38041;40.058;18.328;2023-02-28T06:05:56;79.00;;;12.33;;
52025;SDS011;38041;40.058;18.328;2023-02-28T06:08:23;67.57;;;8.97;;
52025;SDS011;38041;40.058;18.328;2023-02-28T06:10:52;81.87;;;10.37;;
52025;SDS011;38041;40.058;18.328;2023-02-28T06:13:21;79.47;;;12.03;;
52025;SDS011;38041;40.058;18.328;2023-02-28T06:15:48;79.27;;;10.77;;
52025;SDS011;38041;40.058;18.328;2023-02-28T06:18:16;80.13;;;11.73;;
52025;SDS011;38041;40.058;18.328;2023-02-28T06:20:44;79.67;;;11.33;;
52025;SDS011;38041;40.058;18.328;2023-02-28T06:23:11;70.70;;;11.10;;
52025;SDS011;38041;40.058;18.328;2023-02-28T06:25:39;87.63;;;13.70;;
52025;SDS011;38041;40.058;18.328;2023-02-28T06:28:07;62.70;;;9.47;;
52025;SDS011;38041;40.058;18.328;2023-02-28T06:30:34;92.03;;;13.50;;
52025;SDS011;38041;40.058;18.328;2023-02-28T06:33:04;94.87;;;13.13;;
52025;SDS011;38041;40.058;18.328;2023-02-28T06:35:31;80.33;;;12.43;;
52025;SDS011;38041;40.058;18.328;2023-02-28T06:37:59;80.27;;;13.53;;
52025;SDS011;38041;40.058;18.328;2023-02-28T06:40:27;76.97;;;10.47;;
52025;SDS011;38041;40.058;18.328;2023-02-28T06:42:54;76.13;;;12.07;;
52025;SDS011;38041;40.058;18.328;2023-02-28T06:45:22;85.37;;;11.47;;
52025;SDS011;38041;40.058;18.328;2023-02-28T06:47:52;77.93;;;12.67;;
52025;SDS011;38041;40.058;18.328;2023-02-28T06:50:20;110.67;;;23.83;;
52025;SDS011;38041;40.058;18.328;2023-02-28T06:52:48;71.00;;;14.50;;
52025;SDS011;38041;40.058;18.328;2023-02-28T06:55:20;87.43;;;14.47;;
52025;SDS011;38041;40.058;18.328;2023-02-28T06:57:48;87.50;;;15.27;;
52025;SDS011;38041;40.058;18.328;2023-02-28T07:00:17;83.87;;;13.87;;
52025;SDS011;38041;40.058;18.328;2023-02-28T07:02:45;95.20;;;15.93;;
52025;SDS011;38041;40.058;18.328;2023-02-28T07:05:13;99.73;;;17.33;;
52025;SDS011;38041;40.058;18.328;2023-02-28T07:07:41;123.47;;;36.03;;
52025;SDS011;38041;40.058;18.328;2023-02-28T07:10:11;104.90;;;18.50;;
52025;SDS011;38041;40.058;18.328;2023-02-28T07:12:40;68.93;;;14.40;;
52025;SDS011;38041;40.058;18.328;2023-02-28T07:15:07;90.60;;;22.40;;
52025;SDS011;38041;40.058;18.328;2023-02-28T07:17:35;90.63;;;24.47;;
52025;SDS011;38041;40.058;18.328;2023-02-28T07:20:03;110.77;;;36.77;;
52025;SDS011;38041;40.058;18.328;2023-02-28T07:22:31;86.97;;;26.93;;
52025;SDS011;38041;40.058;18.328;2023-02-28T07:24:58;68.60;;;20.63;;
52025;SDS011;38041;40.058;18.328;2023-02-28T07:27:26;89.57;;;20.03;;
52025;SDS011;38041;40.058;18.328;2023-02-28T07:29:54;77.43;;;19.73;;
52025;SDS011;38041;40.058;18.328;2023-02-28T07:32:21;90.20;;;22.43;;
52025;SDS011;38041;40.058;18.328;2023-02-28T07:34:49;94.00;;;18.90;;
52025;SDS011;38041;40.058;18.328;2023-02-28T07:37:17;75.40;;;16.53;;
52025;SDS011;38041;40.058;18.328;2023-02-28T07:39:45;64.57;;;17.20;;
52025;SDS011;38041;40.058;18.328;2023-02-28T07:42:13;82.73;;;23.37;;
52025;SDS011;38041;40.058;18.328;2023-02-28T07:44:40;65.70;;;15.47;;
52025;SDS011;38041;40.058;18.328;2023-02-28T07:47:09;56.57;;;8.57;;
52025;SDS011;38041;40.058;18.328;2023-02-28T07:49:37;60.17;;;8.23;;
52025;SDS011;38041;40.058;18.328;2023-02-28T07:52:05;66.00;;;11.60;;
52025;SDS011;38041;40.058;18.328;2023-02-28T07:54:33;54.27;;;10.53;;
52025;SDS011;38041;40.058;18.328;2023-02-28T07:57:01;67.57;;;20.07;;
52025;SDS011;38041;40.058;18.328;2023-02-28T07:59:31;52.63;;;14.60;;
52025;SDS011;38041;40.058;18.328;2023-02-28T08:01:58;91.90;;;22.03;;
52025;SDS011;38041;40.058;18.328;2023-02-28T08:04:26;62.90;;;12.00;;
52025;SDS011;38041;40.058;18.328;2023-02-28T08:06:54;54.20;;;8.70;;
52025;SDS011;38041;40.058;18.328;2023-02-28T08:09:22;64.30;;;12.67;;
52025;SDS011;38041;40.058;18.328;2023-02-28T08:11:50;58.83;;;10.50;;
52025;SDS011;38041;40.058;18.328;2023-02-28T08:14:18;57.07;;;9.33;;
52025;SDS011;38041;40.058;18.328;2023-02-28T08:16:45;64.90;;;19.10;;
52025;SDS011;38041;40.058;18.328;2023-02-28T08:19:13;51.43;;;6.03;;
52025;SDS011;38041;40.058;18.328;2023-02-28T08:21:41;66.73;;;13.63;;
52025;SDS011;38041;40.058;18.328;2023-02-28T08:24:08;55.07;;;8.70;;
52025;SDS011;38041;40.058;18.328;2023-02-28T08:26:36;38.27;;;7.03;;
52025;SDS011;38041;40.058;18.328;2023-02-28T08:29:04;49.33;;;5.63;;
52025;SDS011;38041;40.058;18.328;2023-02-28T08:31:32;62.27;;;8.97;;
52025;SDS011;38041;40.058;18.328;2023-02-28T08:33:59;47.90;;;7.47;;
52025;SDS011;38041;40.058;18.328;2023-02-28T08:36:27;48.83;;;8.10;;
52025;SDS011;38041;40.058;18.328;2023-02-28T08:38:56;59.30;;;14.57;;
52025;SDS011;38041;40.058;18.328;2023-02-28T08:41:24;50.13;;;14.77;;
52025;SDS011;38041;40.058;18.328;2023-02-28T08:43:52;55.33;;;7.83;;
52025;SDS011;38041;40.058;18.328;2023-02-28T08:46:20;59.03;;;9.23;;
52025;SDS011;38041;40.058;18.328;2023-02-28T08:48:51;52.77;;;8.10;;
52025;SDS011;38041;40.058;18.328;2023-02-28T08:51:19;53.07;;;6.00;;
52025;SDS011;38041;40.058;18.328;2023-02-28T08:53:54;51.17;;;6.73;;
52025;SDS011;38041;40.058;18.328;2023-02-28T08:56:22;49.50;;;8.47;;
52025;SDS011;38041;40.058;18.328;2023-02-28T08:58:50;48.30;;;8.60;;
52025;SDS011;38041;40.058;18.328;2023-02-28T09:01:18;58.37;;;6.90;;
52025;SDS011;38041;40.058;18.328;2023-02-28T09:03:47;54.00;;;8.03;;
52025;SDS011;38041;40.058;18.328;2023-02-28T09:06:16;61.50;;;6.33;;
52025;SDS011;38041;40.058;18.328;2023-02-28T09:08:44;40.37;;;5.37;;
52025;SDS011;38041;40.058;18.328;2023-02-28T09:11:12;62.83;;;6.37;;
52025;SDS011;38041;40.058;18.328;2023-02-28T09:13:39;49.57;;;4.23;;
52025;SDS011;38041;40.058;18.328;2023-02-28T09:16:08;49.37;;;8.83;;
52025;SDS011;38041;40.058;18.328;2023-02-28T09:18:37;47.70;;;5.93;;
52025;SDS011;38041;40.058;18.328;2023-02-28T09:21:09;47.57;;;5.43;;
52025;SDS011;38041;40.058;18.328;2023-02-28T09:23:38;38.13;;;6.33;;
52025;SDS011;38041;40.058;18.328;2023-02-28T09:26:06;47.47;;;6.20;;
52025;SDS011;38041;40.058;18.328;2023-02-28T09:28:34;52.87;;;6.80;;
52025;SDS011;38041;40.058;18.328;2023-02-28T09:31:02;44.33;;;7.22;;
52025;SDS011;38041;40.058;18.328;2023-02-28T09:33:31;47.08;;;8.35;;
52025;SDS011;38041;40.058;18.328;2023-02-28T09:36:02;52.05;;;6.00;;
52025;SDS011;38041;40.058;18.328;2023-02-28T09:38:30;41.00;;;5.65;;
52025;SDS011;38041;40.058;18.328;2023-02-28T09:41:00;49.78;;;6.72;;
52025;SDS011;38041;40.058;18.328;2023-02-28T09:43:35;43.75;;;5.55;;
52025;SDS011;38041;40.058;18.328;2023-02-28T09:48:50;43.08;;;5.60;;
52025;SDS011;38041;40.058;18.328;2023-02-28T09:51:30;30.60;;;4.00;;
52025;SDS011;38041;40.058;18.328;2023-02-28T09:54:00;41.65;;;4.53;;
52025;SDS011;38041;40.058;18.328;2023-02-28T09:56:37;30.55;;;5.03;;
52025;SDS011;38041;40.058;18.328;2023-02-28T10:01:39;51.65;;;7.22;;
52025;SDS011;38041;40.058;18.328;2023-02-28T10:04:26;42.70;;;4.65;;
52025;SDS011;38041;40.058;18.328;2023-02-28T10:06:56;46.97;;;8.20;;
52025;SDS011;38041;40.058;18.328;2023-02-28T10:09:25;38.75;;;4.03;;
52025;SDS011;38041;40.058;18.328;2023-02-28T10:11:56;54.55;;;4.15;;
52025;SDS011;38041;40.058;18.328;2023-02-28T10:14:26;39.17;;;11.52;;
52025;SDS011;38041;40.058;18.328;2023-02-28T10:16:56;49.17;;;6.05;;
52025;SDS011;38041;40.058;18.328;2023-02-28T10:21:55;46.25;;;6.13;;
52025;SDS011;38041;40.058;18.328;2023-02-28T10:27:05;41.33;;;8.05;;
52025;SDS011;38041;40.058;18.328;2023-02-28T10:29:33;50.00;;;6.45;;
52025;SDS011;38041;40.058;18.328;2023-02-28T10:32:01;41.38;;;5.85;;
52025;SDS011;38041;40.058;18.328;2023-02-28T10:34:30;45.77;;;8.17;;
52025;SDS011;38041;40.058;18.328;2023-02-28T10:36:58;37.67;;;7.25;;
52025;SDS011;38041;40.058;18.328;2023-02-28T10:39:39;39.60;;;10.38;;
52025;SDS011;38041;40.058;18.328;2023-02-28T10:45:14;41.30;;;5.38;;
52025;SDS011;38041;40.058;18.328;2023-02-28T10:47:56;56.20;;;4.95;;
52025;SDS011;38041;40.058;18.328;2023-02-28T10:52:55;46.00;;;5.33;;
52025;SDS011;38041;40.058;18.328;2023-02-28T10:55:32;39.67;;;6.40;;
52025;SDS011;38041;40.058;18.328;2023-02-28T10:58:00;42.67;;;3.72;;
52025;SDS011;38041;40.058;18.328;2023-02-28T11:00:31;39.58;;;5.30;;
52025;SDS011;38041;40.058;18.328;2023-02-28T11:03:00;45.67;;;5.63;;
52025;SDS011;38041;40.058;18.328;2023-02-28T11:05:29;35.95;;;6.13;;
52025;SDS011;38041;40.058;18.328;2023-02-28T11:08:05;32.45;;;6.45;;
52025;SDS011;38041;40.058;18.328;2023-02-28T11:10:33;41.40;;;5.38;;
52025;SDS011;38041;40.058;18.328;2023-02-28T11:13:01;46.95;;;4.93;;
52025;SDS011;38041;40.058;18.328;2023-02-28T11:15:32;39.33;;;5.53;;
52025;SDS011;38041;40.058;18.328;2023-02-28T11:20:28;41.28;;;5.07;;
52025;SDS011;38041;40.058;18.328;2023-02-28T11:22:57;46.00;;;6.13;;
52025;SDS011;38041;40.058;18.328;2023-02-28T11:25:28;34.60;;;5.78;;
52025;SDS011;38041;40.058;18.328;2023-02-28T11:27:58;45.80;;;14.23;;
52025;SDS011;38041;40.058;18.328;2023-02-28T11:30:37;50.20;;;9.10;;
52025;SDS011;38041;40.058;18.328;2023-02-28T11:33:49;42.78;;;9.65;;
52025;SDS011;38041;40.058;18.328;2023-02-28T11:36:00;36.60;;;7.22;;
52025;SDS011;38041;40.058;18.328;2023-02-28T11:38:28;33.38;;;5.28;;
52025;SDS011;38041;40.058;18.328;2023-02-28T11:51:51;51.63;;;7.78;;
52025;SDS011;38041;40.058;18.328;2023-02-28T14:18:05;43.95;;;7.35;;
52025;SDS011;38041;40.058;18.328;2023-02-28T14:20:38;31.92;;;6.13;;
52025;SDS011;38041;40.058;18.328;2023-02-28T14:26:01;42.72;;;7.45;;
52025;SDS011;38041;40.058;18.328;2023-02-28T14:28:40;32.60;;;6.40;;
52025;SDS011;38041;40.058;18.328;2023-02-28T14:31:10;35.58;;;7.32;;
52025;SDS011;38041;40.058;18.328;2023-02-28T14:36:14;28.80;;;5.15;;
52025;SDS011;38041;40.058;18.328;2023-02-28T14:41:20;54.30;;;19.75;;
52025;SDS011;38041;40.058;18.328;2023-02-28T14:43:56;61.03;;;25.65;;
52025;SDS011;38041;40.058;18.328;2023-02-28T14:46:25;57.15;;;20.48;;
52025;SDS011;38041;40.058;18.328;2023-02-28T14:48:54;54.97;;;14.90;;
52025;SDS011;38041;40.058;18.328;2023-02-28T14:51:22;37.45;;;11.48;;
52025;SDS011;38041;40.058;18.328;2023-02-28T14:53:52;37.35;;;5.85;;
52025;SDS011;38041;40.058;18.328;2023-02-28T14:56:25;45.25;;;11.18;;
52025;SDS011;38041;40.058;18.328;2023-02-28T14:58:55;49.58;;;11.75;;
52025;SDS011;38041;40.058;18.328;2023-02-28T15:01:23;38.83;;;11.60;;
52025;SDS011;38041;40.058;18.328;2023-02-28T15:03:59;42.70;;;9.55;;
52025;SDS011;38041;40.058;18.328;2023-02-28T15:06:28;52.25;;;10.02;;
52025;SDS011;38041;40.058;18.328;2023-02-28T15:11:37;45.33;;;6.63;;
52025;SDS011;38041;40.058;18.328;2023-02-28T15:14:06;37.58;;;6.28;;
52025;SDS011;38041;40.058;18.328;2023-02-28T15:16:38;41.25;;;5.95;;
52025;SDS011;38041;40.058;18.328;2023-02-28T15:19:28;44.03;;;7.28;;
52025;SDS011;38041;40.058;18.328;2023-02-28T15:22:00;30.83;;;6.20;;
52025;SDS011;38041;40.058;18.328;2023-02-28T15:24:35;45.40;;;7.50;;
52025;SDS011;38041;40.058;18.328;2023-02-28T15:27:06;44.25;;;6.65;;
52025;SDS011;38041;40.058;18.328;2023-02-28T15:29:56;132.70;;;71.50;;
52025;SDS011;38041;40.058;18.328;2023-02-28T15:32:24;70.53;;;28.00;;
52025;SDS011;38041;40.058;18.328;2023-02-28T15:34:53;39.03;;;10.30;;
52025;SDS011;38041;40.058;18.328;2023-02-28T15:37:37;40.88;;;8.90;;
52025;SDS011;38041;40.058;18.328;2023-02-28T15:40:15;44.67;;;7.45;;
52025;SDS011;38041;40.058;18.328;2023-02-28T15:42:43;47.80;;;8.90;;
52025;SDS011;38041;40.058;18.328;2023-02-28T15:48:15;39.78;;;6.97;;
52025;SDS011;38041;40.058;18.328;2023-02-28T15:50:44;54.80;;;17.30;;
52025;SDS011;38041;40.058;18.328;2023-02-28T15:53:19;47.45;;;15.15;;
52025;SDS011;38041;40.058;18.328;2023-02-28T15:55:53;62.70;;;15.38;;
52025;SDS011;38041;40.058;18.328;2023-02-28T15:58:22;41.33;;;10.93;;
52025;SDS011;38041;40.058;18.328;2023-02-28T16:01:04;41.15;;;9.07;;
52025;SDS011;38041;40.058;18.328;2023-02-28T16:03:37;43.47;;;10.23;;
52025;SDS011;38041;40.058;18.328;2023-02-28T16:06:08;41.45;;;10.27;;
52025;SDS011;38041;40.058;18.328;2023-02-28T16:08:36;39.83;;;9.38;;
52025;SDS011;38041;40.058;18.328;2023-02-28T16:11:03;49.88;;;8.10;;
52025;SDS011;38041;40.058;18.328;2023-02-28T16:13:31;48.10;;;10.27;;
52025;SDS011;38041;40.058;18.328;2023-02-28T16:15:59;52.92;;;9.55;;
52025;SDS011;38041;40.058;18.328;2023-02-28T16:18:28;45.58;;;7.78;;
52025;SDS011;38041;40.058;18.328;2023-02-28T16:20:55;38.80;;;9.10;;
52025;SDS011;38041;40.058;18.328;2023-02-28T16:23:24;51.80;;;12.87;;
52025;SDS011;38041;40.058;18.328;2023-02-28T16:25:51;34.63;;;8.43;;
52025;SDS011;38041;40.058;18.328;2023-02-28T16:28:21;52.57;;;12.27;;
52025;SDS011;38041;40.058;18.328;2023-02-28T16:30:51;45.70;;;11.83;;
52025;SDS011;38041;40.058;18.328;2023-02-28T16:33:19;38.27;;;11.30;;
52025;SDS011;38041;40.058;18.328;2023-02-28T16:35:47;51.50;;;13.27;;
52025;SDS011;38041;40.058;18.328;2023-02-28T16:38:14;50.07;;;10.90;;
52025;SDS011;38041;40.058;18.328;2023-02-28T16:40:42;52.47;;;12.83;;
52025;SDS011;38041;40.058;18.328;2023-02-28T16:43:13;52.53;;;12.00;;
52025;SDS011;38041;40.058;18.328;2023-02-28T16:45:42;52.13;;;10.70;;
52025;SDS011;38041;40.058;18.328;2023-02-28T16:48:16;52.17;;;13.40;;
52025;SDS011;38041;40.058;18.328;2023-02-28T16:50:44;56.50;;;15.30;;
52025;SDS011;38041;40.058;18.328;2023-02-28T16:53:12;66.90;;;26.53;;
52025;SDS011;38041;40.058;18.328;2023-02-28T16:55:40;54.53;;;18.07;;
52025;SDS011;38041;40.058;18.328;2023-02-28T16:58:10;52.13;;;16.30;;
52025;SDS011;38041;40.058;18.328;2023-02-28T17:00:39;55.77;;;13.80;;
52025;SDS011;38041;40.058;18.328;2023-02-28T17:03:26;52.23;;;11.20;;
52025;SDS011;38041;40.058;18.328;2023-02-28T17:05:59;57.83;;;13.80;;
52025;SDS011;38041;40.058;18.328;2023-02-28T17:08:27;34.77;;;11.23;;
52025;SDS011;38041;40.058;18.328;2023-02-28T17:10:55;62.40;;;11.87;;
52025;SDS011;38041;40.058;18.328;2023-02-28T17:13:23;60.20;;;13.47;;
52025;SDS011;38041;40.058;18.328;2023-02-28T17:15:51;48.40;;;14.27;;
52025;SDS011;38041;40.058;18.328;2023-02-28T17:18:19;43.47;;;11.43;;
52025;SDS011;38041;40.058;18.328;2023-02-28T17:20:47;48.07;;;13.53;;
52025;SDS011;38041;40.058;18.328;2023-02-28T17:23:15;53.23;;;14.20;;
52025;SDS011;38041;40.058;18.328;2023-02-28T17:25:43;65.77;;;16.37;;
52025;SDS011;38041;40.058;18.328;2023-02-28T17:28:23;57.60;;;16.23;;
52025;SDS011;38041;40.058;18.328;2023-02-28T17:30:51;49.80;;;15.00;;
52025;SDS011;38041;40.058;18.328;2023-02-28T17:33:18;49.17;;;16.07;;
52025;SDS011;38041;40.058;18.328;2023-02-28T17:35:46;75.77;;;22.03;;
52025;SDS011;38041;40.058;18.328;2023-02-28T17:38:17;58.77;;;18.33;;
52025;SDS011;38041;40.058;18.328;2023-02-28T17:40:45;51.00;;;16.43;;
52025;SDS011;38041;40.058;18.328;2023-02-28T17:43:13;51.70;;;16.07;;
52025;SDS011;38041;40.058;18.328;2023-02-28T17:45:41;66.70;;;23.30;;
52025;SDS011;38041;40.058;18.328;2023-02-28T17:48:09;74.40;;;24.60;;
52025;SDS011;38041;40.058;18.328;2023-02-28T17:50:37;64.33;;;23.50;;
52025;SDS011;38041;40.058;18.328;2023-02-28T17:53:05;70.37;;;22.20;;
52025;SDS011;38041;40.058;18.328;2023-02-28T17:55:32;53.70;;;18.70;;
52025;SDS011;38041;40.058;18.328;2023-02-28T17:58:01;56.80;;;19.47;;
52025;SDS011;38041;40.058;18.328;2023-02-28T18:00:29;54.17;;;14.33;;
52025;SDS011;38041;40.058;18.328;2023-02-28T18:03:00;45.60;;;17.63;;
52025;SDS011;38041;40.058;18.328;2023-02-28T18:05:27;70.50;;;26.43;;